createdAt,value
2023-03-13T00:01:00.025Z,76.32
2023-03-13T00:03:27.740Z,76.51
2023-03-13T00:05:58.563Z,75.97
2023-03-13T00:08:26.236Z,76.67
2023-03-13T00:10:52.849Z,76.08
2023-03-13T00:13:19.398Z,76.50
2023-03-13T00:15:46.136Z,76.39
2023-03-13T00:18:13.090Z,76.82
2023-03-13T00:20:40.538Z,76.65
2023-03-13T00:23:07.183Z,75.73
2023-03-13T00:25:34.758Z,75.79
2023-03-13T00:28:01.868Z,76.13
2023-03-13T00:30:28.987Z,76.74
2023-03-13T00:32:55.665Z,76.25
2023-03-13T00:35:23.096Z,75.70
2023-03-13T00:37:49.737Z,75.50
2023-03-13T00:40:16.570Z,75.45
2023-03-13T00:42:43.100Z,75.44
2023-03-13T00:45:10.396Z,75.17
2023-03-13T00:47:37.331Z,75.19
2023-03-13T00:50:04.338Z,74.88
2023-03-13T00:52:30.962Z,74.66
2023-03-13T00:54:57.640Z,74.73
2023-03-13T00:57:24.247Z,74.78
2023-03-13T00:59:51.102Z,74.26
2023-03-13T01:02:17.912Z,73.36
2023-03-13T01:04:44.870Z,73.47
2023-03-13T01:07:11.494Z,73.30
2023-03-13T01:09:38.097Z,73.09
2023-03-13T01:12:05.055Z,72.86
2023-03-13T01:14:31.555Z,72.87
2023-03-13T01:16:58.157Z,72.52
2023-03-13T01:19:24.623Z,72.85
2023-03-13T01:21:51.288Z,72.90
2023-03-13T01:24:20.105Z,72.72
2023-03-13T01:26:47.094Z,73.45
2023-03-13T01:29:14.291Z,72.88
2023-03-13T01:31:40.872Z,71.54
2023-03-13T01:34:08.093Z,71.85
2023-03-13T01:36:36.518Z,71.80
2023-03-13T01:39:03.504Z,71.96
2023-03-13T01:41:30.824Z,72.18
2023-03-13T01:43:57.928Z,72.35
2023-03-13T01:46:27.586Z,71.59
2023-03-13T01:48:55.860Z,71.20
2023-03-13T01:51:38.575Z,71.88
2023-03-13T01:54:20.513Z,71.08
2023-03-13T01:56:57.273Z,71.23
2023-03-13T01:59:37.405Z,71.32
2023-03-13T02:02:05.043Z,71.85
2023-03-13T02:04:37.818Z,71.74
2023-03-13T02:07:14.981Z,72.63
2023-03-13T02:09:43.936Z,72.04
2023-03-13T02:12:13.526Z,72.55
2023-03-13T02:14:43.232Z,72.59
2023-03-13T02:17:10.023Z,72.57
2023-03-13T02:19:48.309Z,72.81
2023-03-13T02:22:36.473Z,72.45
2023-03-13T02:25:26.939Z,73.28
2023-03-13T02:28:21.333Z,73.13
2023-03-13T02:30:50.223Z,73.65
2023-03-13T02:33:18.701Z,74.12
2023-03-13T02:35:46.037Z,74.51
2023-03-13T02:38:16.852Z,74.64
2023-03-13T02:40:46.610Z,74.08
2023-03-13T02:43:19.665Z,74.15
2023-03-13T02:46:06.227Z,73.37
2023-03-13T02:48:53.549Z,72.98
2023-03-13T02:51:24.265Z,72.85
2023-03-13T02:53:52.756Z,72.36
2023-03-13T02:56:22.943Z,71.19
2023-03-13T02:58:50.668Z,71.09
2023-03-13T03:01:17.370Z,70.98
2023-03-13T03:03:44.320Z,70.36
2023-03-13T03:06:10.976Z,70.06
2023-03-13T03:08:41.416Z,70.03
2023-03-13T03:11:08.358Z,69.60
2023-03-13T03:13:34.911Z,69.81
2023-03-13T03:16:09.277Z,69.79
2023-03-13T03:18:36.839Z,69.41
2023-03-13T03:21:06.282Z,69.82
2023-03-13T03:23:33.874Z,69.52
2023-03-13T03:26:01.134Z,68.95
2023-03-13T03:28:27.920Z,69.65
2023-03-13T03:30:55.686Z,69.14
2023-03-13T03:33:22.935Z,69.03
2023-03-13T03:35:50.567Z,69.59
2023-03-13T03:38:17.289Z,70.10
2023-03-13T03:40:43.920Z,70.03
2023-03-13T03:43:10.375Z,69.83
2023-03-13T03:45:37.011Z,69.84
2023-03-13T03:48:03.664Z,68.65
2023-03-13T03:50:30.101Z,69.60
2023-03-13T03:52:56.595Z,69.73
2023-03-13T03:55:23.146Z,69.45
2023-03-13T03:57:49.814Z,69.57
2023-03-13T04:00:16.558Z,69.88
2023-03-13T04:02:43.309Z,69.86
2023-03-13T04:05:10.106Z,69.56
2023-03-13T04:07:37.080Z,70.17
2023-03-13T04:10:04.527Z,69.52
2023-03-13T04:12:31.148Z,69.38
2023-03-13T04:14:57.648Z,68.88
2023-03-13T04:17:24.301Z,69.77
2023-03-13T04:19:50.729Z,69.05
2023-03-13T04:22:17.208Z,69.54
2023-03-13T04:24:44.066Z,69.12
2023-03-13T04:27:10.507Z,68.99
2023-03-13T04:29:36.915Z,69.21
2023-03-13T04:32:03.752Z,69.70
2023-03-13T04:34:30.413Z,69.36
2023-03-13T04:36:57.005Z,69.41
2023-03-13T04:39:25.360Z,69.17
2023-03-13T04:41:55.761Z,69.46
2023-03-13T04:44:23.117Z,69.49
2023-03-13T04:46:49.790Z,70.20
2023-03-13T04:49:16.612Z,69.67
2023-03-13T04:51:43.810Z,69.77
2023-03-13T04:54:10.699Z,70.16
2023-03-13T04:56:43.539Z,69.60
2023-03-13T04:59:14.380Z,70.20
2023-03-13T05:01:41.438Z,69.02
2023-03-13T05:04:08.768Z,69.16
2023-03-13T05:06:35.379Z,69.68
2023-03-13T05:09:03.357Z,70.22
2023-03-13T05:11:30.947Z,69.85
2023-03-13T05:13:57.426Z,69.32
2023-03-13T05:16:24.469Z,69.16
2023-03-13T05:18:51.142Z,69.71
2023-03-13T05:21:18.421Z,69.44
2023-03-13T05:23:45.344Z,69.31
2023-03-13T05:26:11.910Z,69.52
2023-03-13T05:28:38.761Z,69.32
2023-03-13T05:31:05.432Z,69.32
2023-03-13T05:33:32.042Z,69.42
2023-03-13T05:35:58.645Z,69.02
2023-03-13T05:38:25.528Z,68.50
2023-03-13T05:40:52.001Z,68.51
2023-03-13T05:43:18.493Z,68.08
2023-03-13T05:45:46.189Z,67.35
2023-03-13T05:48:13.268Z,68.00
2023-03-13T05:50:39.910Z,68.68
2023-03-13T05:53:06.466Z,69.35
2023-03-13T05:55:33.037Z,69.21
2023-03-13T05:57:59.558Z,69.11
2023-03-13T06:00:27.062Z,68.65
2023-03-13T06:02:53.516Z,69.39
2023-03-13T06:05:20.001Z,69.12
2023-03-13T06:07:46.624Z,68.90
2023-03-13T06:10:13.101Z,69.41
2023-03-13T06:12:40.202Z,68.59
2023-03-13T06:15:07.582Z,69.52
2023-03-13T06:17:34.233Z,68.97
2023-03-13T06:20:00.720Z,69.66
2023-03-13T06:22:27.520Z,69.55
2023-03-13T06:24:53.987Z,69.50
2023-03-13T06:27:20.506Z,70.00
2023-03-13T06:29:47.069Z,70.02
2023-03-13T06:32:13.693Z,70.11
2023-03-13T06:34:40.340Z,69.81
2023-03-13T06:37:07.003Z,69.85
2023-03-13T06:39:34.051Z,68.71
2023-03-13T06:42:00.591Z,69.15
2023-03-13T06:44:27.187Z,69.22
2023-03-13T06:46:53.842Z,67.92
2023-03-13T06:49:20.460Z,68.69
2023-03-13T06:51:46.948Z,68.67
2023-03-13T06:54:13.496Z,68.84
2023-03-13T06:56:40.061Z,68.50
2023-03-13T06:59:06.463Z,68.96
2023-03-13T07:01:33.498Z,68.61
2023-03-13T07:04:00.152Z,68.49
2023-03-13T07:06:27.077Z,68.48
2023-03-13T07:08:54.102Z,68.49
2023-03-13T07:11:20.576Z,68.31
2023-03-13T07:13:46.975Z,67.72
2023-03-13T07:16:14.178Z,68.15
2023-03-13T07:18:44.787Z,68.62
2023-03-13T07:21:12.402Z,68.43
2023-03-13T07:23:38.968Z,67.68
2023-03-13T07:26:07.901Z,68.21
2023-03-13T07:28:37.571Z,68.52
2023-03-13T07:31:15.709Z,70.04
2023-03-13T07:33:42.810Z,71.39
2023-03-13T07:36:09.967Z,72.26
2023-03-13T07:38:36.901Z,74.56
2023-03-13T07:41:04.150Z,76.27
2023-03-13T07:43:31.543Z,79.05
2023-03-13T07:46:04.873Z,81.62
2023-03-13T07:48:33.864Z,81.32
2023-03-13T07:51:00.957Z,82.68
2023-03-13T07:53:28.444Z,81.94
2023-03-13T07:56:00.582Z,84.14
2023-03-13T07:58:29.819Z,86.91
2023-03-13T08:00:57.048Z,85.58
2023-03-13T08:03:24.209Z,86.77
2023-03-13T08:06:15.207Z,85.32
2023-03-13T08:08:41.681Z,85.72
2023-03-13T08:11:13.414Z,85.41
2023-03-13T08:13:41.295Z,86.13
2023-03-13T08:16:14.869Z,86.92
2023-03-13T08:18:46.296Z,87.72
2023-03-13T08:21:19.190Z,87.68
2023-03-13T08:23:45.851Z,86.22
2023-03-13T08:26:14.669Z,87.10
2023-03-13T08:28:41.892Z,88.30
2023-03-13T08:31:17.055Z,87.62
2023-03-13T08:33:45.112Z,87.75
2023-03-13T08:36:26.417Z,86.57
2023-03-13T08:38:54.570Z,88.66
2023-03-13T08:41:23.328Z,86.04
2023-03-13T08:43:52.777Z,87.25
2023-03-13T08:46:19.931Z,85.75
2023-03-13T08:48:54.315Z,87.09
2023-03-13T08:51:23.705Z,86.38
2023-03-13T08:53:50.967Z,85.85
2023-03-13T08:56:19.454Z,84.91
2023-03-13T08:58:50.727Z,84.38
2023-03-13T09:01:17.756Z,84.00
2023-03-13T09:03:44.436Z,87.30
2023-03-13T09:06:11.406Z,84.38
2023-03-13T09:08:39.126Z,82.27
2023-03-13T09:11:14.210Z,82.03
2023-03-13T09:13:44.875Z,80.32
2023-03-13T09:16:17.164Z,80.64
2023-03-13T09:18:43.794Z,82.05
2023-03-13T09:21:14.131Z,81.23
2023-03-13T09:23:40.990Z,80.67
2023-03-13T09:26:07.554Z,79.12
2023-03-13T09:28:34.597Z,80.64
2023-03-13T09:31:09.035Z,81.38
2023-03-13T09:33:36.029Z,84.08
2023-03-13T09:36:02.983Z,84.62
2023-03-13T09:38:29.588Z,84.85
2023-03-13T09:41:06.222Z,86.92
2023-03-13T09:43:33.079Z,87.02
2023-03-13T09:46:02.693Z,88.79
2023-03-13T09:48:34.554Z,90.30
2023-03-13T09:51:36.467Z,89.97
2023-03-13T09:54:06.485Z,89.21
2023-03-13T09:56:50.438Z,90.56
2023-03-13T09:59:22.006Z,90.84
2023-03-13T10:01:49.448Z,90.04
2023-03-13T10:04:36.188Z,89.06
2023-03-13T10:07:02.823Z,88.42
2023-03-13T10:09:32.112Z,87.99
2023-03-13T10:12:20.737Z,87.94
2023-03-13T10:14:54.590Z,89.69
2023-03-13T10:17:32.625Z,87.47
2023-03-13T10:20:23.619Z,89.31
2023-03-13T10:23:00.698Z,86.64
2023-03-13T10:25:39.007Z,87.20
2023-03-13T10:28:08.840Z,88.32
2023-03-13T10:30:38.704Z,85.26
2023-03-13T10:33:08.395Z,87.80
2023-03-13T10:35:38.014Z,86.53
2023-03-13T10:38:11.739Z,85.25
2023-03-13T10:40:39.584Z,84.37
2023-03-13T10:43:21.295Z,85.75
2023-03-13T10:45:48.848Z,85.33
2023-03-13T10:48:19.492Z,85.54
2023-03-13T10:50:49.227Z,84.48
2023-03-13T10:53:32.908Z,84.47
2023-03-13T10:56:17.645Z,81.79
2023-03-13T10:58:52.190Z,80.60
2023-03-13T11:01:28.893Z,80.91
2023-03-13T11:03:57.305Z,77.50
2023-03-13T11:06:31.210Z,78.48
2023-03-13T11:09:03.922Z,76.55
2023-03-13T11:11:31.222Z,75.17
2023-03-13T11:14:18.775Z,76.36
2023-03-13T11:16:51.569Z,74.38
2023-03-13T11:19:24.225Z,73.58
2023-03-13T11:22:02.567Z,74.55
2023-03-13T11:24:40.336Z,73.51
2023-03-13T11:27:48.778Z,73.35
2023-03-13T11:30:22.786Z,73.68
2023-03-13T11:32:54.178Z,72.27
2023-03-13T11:35:35.734Z,71.90
2023-03-13T11:38:08.414Z,72.49
2023-03-13T11:40:50.231Z,73.68
2023-03-13T11:43:26.612Z,72.63
2023-03-13T11:46:04.467Z,71.77
2023-03-13T11:48:40.063Z,71.94
2023-03-13T11:51:12.815Z,71.77
2023-03-13T11:54:20.112Z,71.91
2023-03-13T11:56:56.775Z,70.46
2023-03-13T11:59:29.390Z,71.33
2023-03-13T12:02:00.860Z,71.43
2023-03-13T12:05:01.286Z,70.75
2023-03-13T12:07:32.298Z,70.88
2023-03-13T12:10:23.656Z,71.28
2023-03-13T12:12:59.397Z,70.58
2023-03-13T12:15:29.640Z,70.74
2023-03-13T12:18:20.618Z,71.25
2023-03-13T12:21:12.222Z,70.78
2023-03-13T12:23:38.809Z,71.45
2023-03-13T12:26:19.482Z,70.27
2023-03-13T12:28:55.029Z,69.16
2023-03-13T12:31:29.497Z,67.54
2023-03-13T12:34:03.743Z,66.15
2023-03-13T12:36:41.625Z,65.67
2023-03-13T12:39:22.768Z,65.51
2023-03-13T12:42:27.051Z,64.14
2023-03-13T12:44:54.230Z,64.17
2023-03-13T12:47:27.953Z,64.29
2023-03-13T12:50:19.380Z,64.86
2023-03-13T12:52:45.802Z,63.87
2023-03-13T12:55:24.074Z,63.40
2023-03-13T12:58:06.553Z,63.27
2023-03-13T13:00:35.827Z,62.06
2023-03-13T13:03:17.395Z,62.22
2023-03-13T13:06:06.010Z,61.46
2023-03-13T13:08:37.712Z,61.92
2023-03-13T13:11:38.695Z,61.29
2023-03-13T13:14:28.502Z,59.81
2023-03-13T13:17:00.381Z,59.32
2023-03-13T13:19:26.855Z,60.19
2023-03-13T13:22:33.420Z,59.09
2023-03-13T13:25:00.960Z,58.21
2023-03-13T13:27:36.537Z,57.54
2023-03-13T13:30:17.405Z,57.39
2023-03-13T13:32:50.197Z,57.77
2023-03-13T13:35:28.836Z,58.59
2023-03-13T13:38:20.206Z,56.95
2023-03-13T13:41:10.063Z,57.41
2023-03-13T13:43:43.182Z,57.53
2023-03-13T13:46:33.509Z,58.68
2023-03-13T13:49:06.699Z,59.77
2023-03-13T13:51:43.605Z,58.31
2023-03-13T13:54:19.153Z,58.92
2023-03-13T13:56:50.118Z,59.16
2023-03-13T13:59:24.802Z,59.50
2023-03-13T14:02:21.666Z,60.52
2023-03-13T14:05:15.530Z,61.61
2023-03-13T14:08:00.361Z,60.75
2023-03-13T14:10:43.669Z,60.95
2023-03-13T14:13:19.472Z,60.77
2023-03-13T14:15:53.251Z,60.29
2023-03-13T14:18:28.300Z,59.96
2023-03-13T14:20:57.232Z,58.97
2023-03-13T14:23:44.112Z,59.01
2023-03-13T14:26:24.263Z,59.73
2023-03-13T14:28:53.978Z,59.50
2023-03-13T14:31:22.926Z,59.71
2023-03-13T14:33:50.079Z,59.90
2023-03-13T14:36:16.557Z,60.00
2023-03-13T14:38:52.954Z,59.70
2023-03-13T14:41:43.195Z,59.48
2023-03-13T14:44:24.978Z,59.43
2023-03-13T14:46:59.439Z,58.94
2023-03-13T14:49:31.680Z,59.53
2023-03-13T14:52:01.417Z,59.16
2023-03-13T14:54:36.649Z,59.21
2023-03-13T14:57:04.407Z,58.92
2023-03-13T14:59:31.058Z,59.28
2023-03-13T15:02:04.517Z,58.88
2023-03-13T15:04:50.056Z,59.23
2023-03-13T15:07:17.137Z,59.07
2023-03-13T15:09:45.865Z,59.06
2023-03-13T15:12:18.925Z,58.84
2023-03-13T15:14:47.704Z,58.58
2023-03-13T15:17:15.049Z,59.33
2023-03-13T15:19:42.543Z,58.84
2023-03-13T15:22:16.487Z,59.10
2023-03-13T15:24:48.458Z,58.98
2023-03-13T15:27:22.091Z,59.10
2023-03-13T15:29:49.538Z,59.51
2023-03-13T15:32:21.986Z,58.72
2023-03-13T15:34:48.461Z,59.96
2023-03-13T15:37:15.638Z,58.44
2023-03-13T15:39:42.304Z,58.15
2023-03-13T15:42:08.830Z,57.70
2023-03-13T15:44:35.610Z,57.78
2023-03-13T15:47:02.237Z,57.57
2023-03-13T15:49:28.721Z,56.55
2023-03-13T15:51:57.708Z,57.06
2023-03-13T15:54:26.501Z,57.29
2023-03-13T15:56:53.228Z,57.06
2023-03-13T15:59:19.756Z,57.52
2023-03-13T16:01:46.267Z,56.72
2023-03-13T16:04:30.402Z,57.06
2023-03-13T16:06:58.456Z,57.51
2023-03-13T16:09:25.075Z,57.14
2023-03-13T16:11:51.618Z,57.55
2023-03-13T16:14:18.076Z,56.79
2023-03-13T16:16:44.786Z,57.29
2023-03-13T16:19:12.330Z,56.47
2023-03-13T16:21:43.085Z,57.12
2023-03-13T16:24:09.576Z,57.57
2023-03-13T16:26:36.056Z,57.92
2023-03-13T16:29:02.924Z,57.96
2023-03-13T16:31:31.478Z,57.96
2023-03-13T16:33:58.980Z,58.26
2023-03-13T16:36:31.326Z,58.11
2023-03-13T16:38:59.898Z,58.80
2023-03-13T16:41:27.825Z,59.25
2023-03-13T16:43:55.046Z,59.28
2023-03-13T16:46:28.553Z,59.15
2023-03-13T16:48:58.351Z,59.18
2023-03-13T16:51:26.148Z,59.37
2023-03-13T16:53:54.402Z,58.85
2023-03-13T16:56:30.496Z,59.43
2023-03-13T16:58:57.336Z,59.50
2023-03-13T17:01:29.904Z,59.88
2023-03-13T17:03:57.840Z,60.23
2023-03-13T17:06:28.018Z,59.95
2023-03-13T17:08:55.696Z,60.64
2023-03-13T17:11:22.656Z,60.86
2023-03-13T17:13:50.715Z,60.66
2023-03-13T17:16:23.274Z,60.58
2023-03-13T17:18:51.729Z,60.58
2023-03-13T17:21:27.088Z,60.31
2023-03-13T17:23:53.687Z,60.50
2023-03-13T17:26:25.955Z,60.64
2023-03-13T17:28:55.052Z,61.22
2023-03-13T17:31:23.654Z,61.05
2023-03-13T17:33:50.623Z,61.35
2023-03-13T17:36:18.683Z,61.31
2023-03-13T17:38:46.100Z,60.89
2023-03-13T17:41:14.691Z,61.73
2023-03-13T17:43:41.729Z,62.26
2023-03-13T17:46:15.168Z,63.63
2023-03-13T17:48:41.810Z,64.92
2023-03-13T17:51:16.958Z,65.11
2023-03-13T17:53:44.284Z,65.33
2023-03-13T17:56:24.813Z,65.69
2023-03-13T17:58:54.366Z,66.27
2023-03-13T18:01:22.257Z,66.14
2023-03-13T18:03:49.525Z,66.63
2023-03-13T18:06:19.566Z,66.25
2023-03-13T18:08:47.275Z,66.48
2023-03-13T18:11:15.383Z,66.45
2023-03-13T18:13:41.992Z,65.93
2023-03-13T18:16:28.248Z,65.53
2023-03-13T18:18:54.902Z,65.66
2023-03-13T18:21:24.322Z,65.06
2023-03-13T18:23:52.143Z,64.62
2023-03-13T18:26:33.597Z,64.83
2023-03-13T18:29:01.373Z,63.99
2023-03-13T18:31:30.046Z,63.25
2023-03-13T18:33:58.616Z,63.45
2023-03-13T18:36:25.565Z,63.23
2023-03-13T18:38:52.786Z,62.64
2023-03-13T18:41:19.850Z,62.97
2023-03-13T18:43:46.783Z,62.92
2023-03-13T18:46:20.611Z,62.99
2023-03-13T18:48:49.036Z,63.89
2023-03-13T18:51:17.358Z,64.29
2023-03-13T18:53:44.806Z,64.49
2023-03-13T18:56:20.790Z,65.16
2023-03-13T18:58:50.367Z,65.34
2023-03-13T19:01:20.187Z,65.04
2023-03-13T19:03:47.692Z,66.09
2023-03-13T19:06:27.518Z,65.63
2023-03-13T19:08:57.541Z,65.57
2023-03-13T19:11:27.028Z,65.50
2023-03-13T19:13:53.908Z,65.74
2023-03-13T19:16:35.058Z,65.15
2023-03-13T19:19:01.958Z,65.74
2023-03-13T19:21:30.406Z,65.50
2023-03-13T19:23:57.521Z,65.26
2023-03-13T19:26:31.644Z,67.22
2023-03-13T19:28:59.056Z,71.04
2023-03-13T19:31:26.217Z,76.97
2023-03-13T19:33:55.664Z,85.78
2023-03-13T19:36:23.450Z,89.67
2023-03-13T19:38:50.391Z,89.88
2023-03-13T19:41:18.015Z,88.84
2023-03-13T19:43:45.546Z,89.76
2023-03-13T19:46:28.107Z,90.93
2023-03-13T19:48:57.066Z,90.64
2023-03-13T19:51:24.492Z,90.00
2023-03-13T19:53:51.989Z,89.20
2023-03-13T19:56:22.228Z,89.60
2023-03-13T19:58:50.957Z,90.17
2023-03-13T20:01:18.339Z,90.40
2023-03-13T20:03:45.916Z,91.27
2023-03-13T20:06:21.484Z,91.51
2023-03-13T20:08:48.380Z,94.29
2023-03-13T20:11:15.824Z,96.01
2023-03-13T20:13:42.667Z,95.79
2023-03-13T20:16:12.672Z,96.32
2023-03-13T20:18:40.458Z,95.83
2023-03-13T20:21:07.589Z,95.32
2023-03-13T20:23:34.117Z,95.08
2023-03-13T20:26:08.393Z,93.49
2023-03-13T20:28:42.192Z,91.42
2023-03-13T20:31:09.330Z,93.71
2023-03-13T20:33:36.450Z,92.58
2023-03-13T20:36:09.292Z,92.85
2023-03-13T20:38:37.208Z,93.26
2023-03-13T20:41:04.671Z,92.07
2023-03-13T20:43:32.280Z,93.08
2023-03-13T20:46:01.753Z,93.68
2023-03-13T20:48:29.234Z,97.74
2023-03-13T20:50:58.305Z,95.30
2023-03-13T20:53:25.966Z,95.39
2023-03-13T20:55:54.477Z,94.85
2023-03-13T20:58:21.225Z,95.35
2023-03-13T21:00:48.372Z,94.27
2023-03-13T21:03:15.272Z,94.60
2023-03-13T21:05:42.372Z,96.14
2023-03-13T21:08:09.451Z,95.98
2023-03-13T21:10:39.557Z,95.74
2023-03-13T21:13:06.666Z,96.16
2023-03-13T21:15:33.652Z,97.03
2023-03-13T21:18:00.529Z,97.58
2023-03-13T21:20:27.997Z,98.04
2023-03-13T21:22:55.131Z,99.10
2023-03-13T21:25:21.997Z,98.69
2023-03-13T21:27:48.741Z,98.98
2023-03-13T21:30:18.140Z,97.44
2023-03-13T21:32:45.461Z,97.85
2023-03-13T21:35:12.720Z,97.84
2023-03-13T21:37:39.898Z,98.52
2023-03-13T21:40:08.796Z,99.24
2023-03-13T21:42:36.160Z,98.54
2023-03-13T21:45:04.283Z,98.70
2023-03-13T21:47:36.550Z,99.94
2023-03-13T21:50:05.783Z,99.73
2023-03-13T21:52:34.404Z,100.00
2023-03-13T21:55:03.489Z,100.00
2023-03-13T21:57:29.996Z,100.00
2023-03-13T21:59:56.553Z,100.00
2023-03-13T22:02:23.172Z,98.15
2023-03-13T22:04:49.872Z,97.60
2023-03-13T22:07:16.436Z,95.45
2023-03-13T22:09:42.973Z,97.07
2023-03-13T22:12:09.659Z,96.70
2023-03-13T22:14:36.393Z,97.44
2023-03-13T22:17:03.231Z,97.31
2023-03-13T22:19:29.841Z,97.55
2023-03-13T22:21:56.394Z,97.22
2023-03-13T22:24:23.216Z,96.53
2023-03-13T22:26:49.796Z,97.47
2023-03-13T22:29:16.391Z,97.76
2023-03-13T22:31:42.937Z,98.70
2023-03-13T22:34:09.489Z,98.71
2023-03-13T22:36:37.795Z,100.00
2023-03-13T22:39:04.499Z,100.00
2023-03-13T22:41:30.993Z,100.00
2023-03-13T22:43:57.471Z,100.00
2023-03-13T22:46:24.475Z,100.00
2023-03-13T22:48:51.079Z,100.00
2023-03-13T22:51:17.619Z,100.00
2023-03-13T22:53:44.143Z,100.00
2023-03-13T22:56:11.966Z,100.00
2023-03-13T22:58:39.446Z,100.00
2023-03-13T23:01:12.404Z,100.00
2023-03-13T23:03:39.492Z,100.00
2023-03-13T23:06:07.994Z,100.00
2023-03-13T23:08:35.257Z,100.00
2023-03-13T23:11:03.346Z,100.00
2023-03-13T23:13:30.498Z,100.00
2023-03-13T23:15:57.677Z,100.00
2023-03-13T23:18:25.548Z,100.00
2023-03-13T23:20:52.346Z,100.00
2023-03-13T23:23:19.023Z,100.00
2023-03-13T23:25:45.691Z,100.00
2023-03-13T23:28:12.321Z,100.00
2023-03-13T23:30:38.976Z,100.00
2023-03-13T23:33:05.865Z,100.00
2023-03-13T23:35:32.662Z,100.00
2023-03-13T23:37:59.273Z,100.00
2023-03-13T23:40:25.772Z,100.00
2023-03-13T23:42:52.736Z,100.00
2023-03-13T23:45:19.271Z,100.00
2023-03-13T23:47:46.232Z,100.00
2023-03-13T23:50:15.373Z,100.00
2023-03-13T23:52:42.156Z,100.00
2023-03-13T23:55:09.913Z,100.00
2023-03-13T23:57:39.873Z,100.00
